sensor_id;sensor_type;location;lat;lon;timestamp;P1;durP1;ratioP1;P2;durP2;ratioP2
16634;SDS011;8431;52.458;9.998;2023-12-14T00:02:02;20.75;;;19.20;;
16634;SDS011;8431;52.458;9.998;2023-12-14T00:04:28;19.98;;;18.50;;
16634;SDS011;8431;52.458;9.998;2023-12-14T00:06:55;19.58;;;18.27;;
16634;SDS011;8431;52.458;9.998;2023-12-14T00:09:22;19.42;;;18.15;;
16634;SDS011;8431;52.458;9.998;2023-12-14T00:11:48;20.77;;;19.27;;
16634;SDS011;8431;52.458;9.998;2023-12-14T00:14:15;20.35;;;18.95;;
16634;SDS011;8431;52.458;9.998;2023-12-14T00:16:44;21.15;;;19.63;;
16634;SDS011;8431;52.458;9.998;2023-12-14T00:19:10;21.38;;;19.83;;
16634;SDS011;8431;52.458;9.998;2023-12-14T00:21:37;19.20;;;17.80;;
16634;SDS011;8431;52.458;9.998;2023-12-14T00:24:04;20.52;;;19.02;;
16634;SDS011;8431;52.458;9.998;2023-12-14T00:26:31;19.17;;;17.88;;
16634;SDS011;8431;52.458;9.998;2023-12-14T00:28:58;20.58;;;19.17;;
16634;SDS011;8431;52.458;9.998;2023-12-14T00:31:25;21.15;;;19.65;;
16634;SDS011;8431;52.458;9.998;2023-12-14T00:33:53;19.73;;;18.45;;
16634;SDS011;8431;52.458;9.998;2023-12-14T00:36:20;20.58;;;19.10;;
16634;SDS011;8431;52.458;9.998;2023-12-14T00:38:47;19.73;;;18.35;;
16634;SDS011;8431;52.458;9.998;2023-12-14T00:41:14;18.65;;;17.40;;
16634;SDS011;8431;52.458;9.998;2023-12-14T00:43:41;17.67;;;16.58;;
16634;SDS011;8431;52.458;9.998;2023-12-14T00:46:07;19.20;;;17.98;;
16634;SDS011;8431;52.458;9.998;2023-12-14T00:48:36;18.77;;;17.42;;
16634;SDS011;8431;52.458;9.998;2023-12-14T00:51:04;20.88;;;19.20;;
16634;SDS011;8431;52.458;9.998;2023-12-14T00:53:31;19.20;;;17.90;;
16634;SDS011;8431;52.458;9.998;2023-12-14T00:55:58;19.50;;;18.10;;
16634;SDS011;8431;52.458;9.998;2023-12-14T00:58:25;19.77;;;18.38;;
16634;SDS011;8431;52.458;9.998;2023-12-14T01:00:52;20.27;;;18.88;;
16634;SDS011;8431;52.458;9.998;2023-12-14T01:03:19;17.13;;;15.93;;
16634;SDS011;8431;52.458;9.998;2023-12-14T01:05:46;17.85;;;16.58;;
16634;SDS011;8431;52.458;9.998;2023-12-14T01:08:14;19.52;;;18.15;;
16634;SDS011;8431;52.458;9.998;2023-12-14T01:10:41;17.88;;;16.70;;
16634;SDS011;8431;52.458;9.998;2023-12-14T01:13:08;19.52;;;18.17;;
16634;SDS011;8431;52.458;9.998;2023-12-14T01:15:34;18.30;;;17.10;;
16634;SDS011;8431;52.458;9.998;2023-12-14T01:18:01;17.58;;;16.42;;
16634;SDS011;8431;52.458;9.998;2023-12-14T01:20:28;20.35;;;18.85;;
16634;SDS011;8431;52.458;9.998;2023-12-14T01:22:55;20.98;;;19.48;;
16634;SDS011;8431;52.458;9.998;2023-12-14T01:25:23;18.48;;;17.17;;
16634;SDS011;8431;52.458;9.998;2023-12-14T01:27:50;18.83;;;17.30;;
16634;SDS011;8431;52.458;9.998;2023-12-14T01:30:17;18.02;;;16.73;;
16634;SDS011;8431;52.458;9.998;2023-12-14T01:32:43;19.10;;;17.80;;
16634;SDS011;8431;52.458;9.998;2023-12-14T01:35:10;18.70;;;17.40;;
16634;SDS011;8431;52.458;9.998;2023-12-14T01:37:37;18.58;;;17.23;;
16634;SDS011;8431;52.458;9.998;2023-12-14T01:40:05;17.33;;;16.20;;
16634;SDS011;8431;52.458;9.998;2023-12-14T01:42:34;16.70;;;15.43;;
16634;SDS011;8431;52.458;9.998;2023-12-14T01:45:00;18.65;;;17.33;;
16634;SDS011;8431;52.458;9.998;2023-12-14T01:47:28;18.50;;;17.05;;
16634;SDS011;8431;52.458;9.998;2023-12-14T01:49:54;17.05;;;16.00;;
16634;SDS011;8431;52.458;9.998;2023-12-14T01:52:21;18.23;;;17.10;;
16634;SDS011;8431;52.458;9.998;2023-12-14T01:54:48;19.33;;;17.85;;
16634;SDS011;8431;52.458;9.998;2023-12-14T01:57:15;18.33;;;17.02;;
16634;SDS011;8431;52.458;9.998;2023-12-14T01:59:43;17.98;;;16.58;;
16634;SDS011;8431;52.458;9.998;2023-12-14T02:02:10;19.15;;;17.85;;
16634;SDS011;8431;52.458;9.998;2023-12-14T02:04:37;20.95;;;19.48;;
16634;SDS011;8431;52.458;9.998;2023-12-14T02:07:04;20.23;;;18.67;;
16634;SDS011;8431;52.458;9.998;2023-12-14T02:09:30;20.50;;;19.00;;
16634;SDS011;8431;52.458;9.998;2023-12-14T02:11:57;20.38;;;18.90;;
16634;SDS011;8431;52.458;9.998;2023-12-14T02:14:24;21.48;;;19.98;;
16634;SDS011;8431;52.458;9.998;2023-12-14T02:16:53;20.75;;;19.17;;
16634;SDS011;8431;52.458;9.998;2023-12-14T02:19:20;21.58;;;19.95;;
16634;SDS011;8431;52.458;9.998;2023-12-14T02:21:46;21.02;;;19.42;;
16634;SDS011;8431;52.458;9.998;2023-12-14T02:24:15;22.58;;;20.42;;
16634;SDS011;8431;52.458;9.998;2023-12-14T02:26:41;23.65;;;21.33;;
16634;SDS011;8431;52.458;9.998;2023-12-14T02:29:08;21.90;;;19.98;;
16634;SDS011;8431;52.458;9.998;2023-12-14T02:31:35;21.60;;;19.92;;
16634;SDS011;8431;52.458;9.998;2023-12-14T02:34:02;22.40;;;20.40;;
16634;SDS011;8431;52.458;9.998;2023-12-14T02:36:29;21.80;;;20.02;;
16634;SDS011;8431;52.458;9.998;2023-12-14T02:38:55;23.25;;;21.08;;
16634;SDS011;8431;52.458;9.998;2023-12-14T02:41:23;25.73;;;23.02;;
16634;SDS011;8431;52.458;9.998;2023-12-14T02:43:50;21.55;;;19.75;;
16634;SDS011;8431;52.458;9.998;2023-12-14T02:46:20;23.10;;;21.05;;
16634;SDS011;8431;52.458;9.998;2023-12-14T02:48:47;22.20;;;20.50;;
16634;SDS011;8431;52.458;9.998;2023-12-14T02:51:14;20.48;;;18.88;;
16634;SDS011;8431;52.458;9.998;2023-12-14T02:53:41;22.38;;;20.45;;
16634;SDS011;8431;52.458;9.998;2023-12-14T02:56:10;22.88;;;20.88;;
16634;SDS011;8431;52.458;9.998;2023-12-14T02:58:38;21.65;;;19.90;;
16634;SDS011;8431;52.458;9.998;2023-12-14T03:01:05;21.42;;;19.83;;
16634;SDS011;8431;52.458;9.998;2023-12-14T03:03:32;21.60;;;19.63;;
16634;SDS011;8431;52.458;9.998;2023-12-14T03:05:59;21.88;;;19.65;;
16634;SDS011;8431;52.458;9.998;2023-12-14T03:08:25;23.17;;;21.38;;
16634;SDS011;8431;52.458;9.998;2023-12-14T03:10:52;23.23;;;21.45;;
16634;SDS011;8431;52.458;9.998;2023-12-14T03:13:19;22.92;;;20.95;;
16634;SDS011;8431;52.458;9.998;2023-12-14T03:15:47;22.67;;;20.88;;
16634;SDS011;8431;52.458;9.998;2023-12-14T03:18:14;22.40;;;20.60;;
16634;SDS011;8431;52.458;9.998;2023-12-14T03:20:41;23.42;;;21.38;;
16634;SDS011;8431;52.458;9.998;2023-12-14T03:23:08;23.63;;;21.70;;
16634;SDS011;8431;52.458;9.998;2023-12-14T03:25:35;23.17;;;21.08;;
16634;SDS011;8431;52.458;9.998;2023-12-14T03:28:02;24.73;;;22.50;;
16634;SDS011;8431;52.458;9.998;2023-12-14T03:30:29;24.67;;;22.67;;
16634;SDS011;8431;52.458;9.998;2023-12-14T03:32:57;25.30;;;22.75;;
16634;SDS011;8431;52.458;9.998;2023-12-14T03:35:26;24.25;;;22.15;;
16634;SDS011;8431;52.458;9.998;2023-12-14T03:37:52;24.20;;;22.00;;
16634;SDS011;8431;52.458;9.998;2023-12-14T03:40:19;22.48;;;20.60;;
16634;SDS011;8431;52.458;9.998;2023-12-14T03:42:46;22.42;;;20.65;;
16634;SDS011;8431;52.458;9.998;2023-12-14T03:45:13;22.58;;;20.80;;
16634;SDS011;8431;52.458;9.998;2023-12-14T03:47:40;23.23;;;21.33;;
16634;SDS011;8431;52.458;9.998;2023-12-14T03:50:10;21.00;;;19.30;;
16634;SDS011;8431;52.458;9.998;2023-12-14T03:52:37;22.63;;;20.58;;
16634;SDS011;8431;52.458;9.998;2023-12-14T03:55:05;25.13;;;22.67;;
16634;SDS011;8431;52.458;9.998;2023-12-14T03:57:32;23.90;;;21.80;;
16634;SDS011;8431;52.458;9.998;2023-12-14T03:59:59;23.35;;;21.05;;
16634;SDS011;8431;52.458;9.998;2023-12-14T04:02:26;20.30;;;18.50;;
16634;SDS011;8431;52.458;9.998;2023-12-14T04:04:53;21.20;;;19.33;;
16634;SDS011;8431;52.458;9.998;2023-12-14T04:07:21;21.42;;;19.35;;
16634;SDS011;8431;52.458;9.998;2023-12-14T04:09:48;20.60;;;18.45;;
16634;SDS011;8431;52.458;9.998;2023-12-14T04:12:15;19.13;;;17.55;;
16634;SDS011;8431;52.458;9.998;2023-12-14T04:14:41;21.77;;;19.98;;
16634;SDS011;8431;52.458;9.998;2023-12-14T04:17:09;19.92;;;18.35;;
16634;SDS011;8431;52.458;9.998;2023-12-14T04:19:37;19.58;;;17.77;;
16634;SDS011;8431;52.458;9.998;2023-12-14T04:22:04;18.50;;;17.05;;
16634;SDS011;8431;52.458;9.998;2023-12-14T04:27:30;21.25;;;19.45;;
16634;SDS011;8431;52.458;9.998;2023-12-14T04:29:57;21.80;;;19.80;;
16634;SDS011;8431;52.458;9.998;2023-12-14T04:32:24;21.50;;;19.77;;
16634;SDS011;8431;52.458;9.998;2023-12-14T04:34:51;21.70;;;20.00;;
16634;SDS011;8431;52.458;9.998;2023-12-14T04:37:18;22.88;;;21.10;;
16634;SDS011;8431;52.458;9.998;2023-12-14T04:39:45;22.38;;;20.60;;
16634;SDS011;8431;52.458;9.998;2023-12-14T04:42:13;22.50;;;20.80;;
16634;SDS011;8431;52.458;9.998;2023-12-14T04:44:40;22.45;;;20.95;;
16634;SDS011;8431;52.458;9.998;2023-12-14T04:47:10;23.40;;;21.77;;
16634;SDS011;8431;52.458;9.998;2023-12-14T04:49:37;21.70;;;20.20;;
16634;SDS011;8431;52.458;9.998;2023-12-14T04:52:04;23.05;;;21.38;;
16634;SDS011;8431;52.458;9.998;2023-12-14T04:54:31;23.58;;;22.00;;
16634;SDS011;8431;52.458;9.998;2023-12-14T04:56:58;23.15;;;21.55;;
16634;SDS011;8431;52.458;9.998;2023-12-14T04:59:26;24.13;;;22.38;;
16634;SDS011;8431;52.458;9.998;2023-12-14T05:01:52;25.02;;;22.90;;
16634;SDS011;8431;52.458;9.998;2023-12-14T05:04:19;23.15;;;21.38;;
16634;SDS011;8431;52.458;9.998;2023-12-14T05:06:46;23.60;;;21.80;;
16634;SDS011;8431;52.458;9.998;2023-12-14T05:09:13;21.60;;;20.17;;
16634;SDS011;8431;52.458;9.998;2023-12-14T05:11:40;23.08;;;21.38;;
16634;SDS011;8431;52.458;9.998;2023-12-14T05:14:07;23.15;;;21.40;;
16634;SDS011;8431;52.458;9.998;2023-12-14T05:16:35;22.63;;;20.83;;
16634;SDS011;8431;52.458;9.998;2023-12-14T05:19:02;22.55;;;20.80;;
16634;SDS011;8431;52.458;9.998;2023-12-14T05:21:29;21.42;;;19.92;;
16634;SDS011;8431;52.458;9.998;2023-12-14T05:23:55;22.25;;;20.75;;
16634;SDS011;8431;52.458;9.998;2023-12-14T05:26:22;21.85;;;20.45;;
16634;SDS011;8431;52.458;9.998;2023-12-14T05:28:49;21.70;;;20.08;;
16634;SDS011;8431;52.458;9.998;2023-12-14T05:31:16;22.02;;;20.52;;
16634;SDS011;8431;52.458;9.998;2023-12-14T05:33:44;20.80;;;19.38;;
16634;SDS011;8431;52.458;9.998;2023-12-14T05:36:11;21.10;;;19.33;;
16634;SDS011;8431;52.458;9.998;2023-12-14T05:38:38;20.58;;;19.27;;
16634;SDS011;8431;52.458;9.998;2023-12-14T05:41:05;21.67;;;20.15;;
16634;SDS011;8431;52.458;9.998;2023-12-14T05:43:32;21.58;;;20.08;;
16634;SDS011;8431;52.458;9.998;2023-12-14T05:45:59;21.13;;;19.73;;
16634;SDS011;8431;52.458;9.998;2023-12-14T05:48:26;23.20;;;21.60;;
16634;SDS011;8431;52.458;9.998;2023-12-14T05:50:54;22.13;;;20.55;;
16634;SDS011;8431;52.458;9.998;2023-12-14T05:53:22;21.95;;;20.35;;
16634;SDS011;8431;52.458;9.998;2023-12-14T05:55:49;22.08;;;20.23;;
16634;SDS011;8431;52.458;9.998;2023-12-14T05:58:16;20.45;;;18.88;;
16634;SDS011;8431;52.458;9.998;2023-12-14T06:00:43;21.40;;;19.95;;
16634;SDS011;8431;52.458;9.998;2023-12-14T06:03:10;19.55;;;18.13;;
16634;SDS011;8431;52.458;9.998;2023-12-14T06:05:37;17.40;;;16.10;;
16634;SDS011;8431;52.458;9.998;2023-12-14T06:08:05;19.55;;;18.05;;
16634;SDS011;8431;52.458;9.998;2023-12-14T06:10:32;18.83;;;17.45;;
16634;SDS011;8431;52.458;9.998;2023-12-14T06:12:59;19.35;;;17.95;;
16634;SDS011;8431;52.458;9.998;2023-12-14T06:15:25;20.25;;;18.75;;
16634;SDS011;8431;52.458;9.998;2023-12-14T06:17:52;18.35;;;17.02;;
16634;SDS011;8431;52.458;9.998;2023-12-14T06:20:19;18.38;;;16.98;;
16634;SDS011;8431;52.458;9.998;2023-12-14T06:22:46;19.52;;;17.95;;
16634;SDS011;8431;52.458;9.998;2023-12-14T06:25:14;20.08;;;18.55;;
16634;SDS011;8431;52.458;9.998;2023-12-14T06:27:41;20.73;;;19.23;;
16634;SDS011;8431;52.458;9.998;2023-12-14T06:30:10;19.92;;;18.60;;
16634;SDS011;8431;52.458;9.998;2023-12-14T06:32:37;20.90;;;19.33;;
16634;SDS011;8431;52.458;9.998;2023-12-14T06:35:04;21.50;;;19.95;;
16634;SDS011;8431;52.458;9.998;2023-12-14T06:37:32;21.23;;;19.75;;
16634;SDS011;8431;52.458;9.998;2023-12-14T06:39:59;22.33;;;20.52;;
16634;SDS011;8431;52.458;9.998;2023-12-14T06:42:27;19.48;;;18.08;;
16634;SDS011;8431;52.458;9.998;2023-12-14T06:44:55;17.85;;;16.33;;
16634;SDS011;8431;52.458;9.998;2023-12-14T06:47:22;19.13;;;17.63;;
16634;SDS011;8431;52.458;9.998;2023-12-14T06:49:48;19.80;;;18.20;;
16634;SDS011;8431;52.458;9.998;2023-12-14T06:52:15;18.50;;;17.00;;
16634;SDS011;8431;52.458;9.998;2023-12-14T06:54:42;20.23;;;18.63;;
16634;SDS011;8431;52.458;9.998;2023-12-14T06:57:09;20.48;;;18.75;;
16634;SDS011;8431;52.458;9.998;2023-12-14T06:59:37;18.73;;;17.35;;
16634;SDS011;8431;52.458;9.998;2023-12-14T07:02:04;17.55;;;16.25;;
16634;SDS011;8431;52.458;9.998;2023-12-14T07:04:31;18.77;;;16.90;;
16634;SDS011;8431;52.458;9.998;2023-12-14T07:06:58;19.33;;;17.92;;
16634;SDS011;8431;52.458;9.998;2023-12-14T07:09:38;19.00;;;17.70;;
16634;SDS011;8431;52.458;9.998;2023-12-14T07:12:05;18.55;;;17.25;;
16634;SDS011;8431;52.458;9.998;2023-12-14T07:14:33;19.00;;;17.60;;
16634;SDS011;8431;52.458;9.998;2023-12-14T07:17:01;18.02;;;16.60;;
16634;SDS011;8431;52.458;9.998;2023-12-14T07:19:28;17.63;;;16.33;;
16634;SDS011;8431;52.458;9.998;2023-12-14T07:21:55;18.40;;;17.10;;
16634;SDS011;8431;52.458;9.998;2023-12-14T07:24:22;20.02;;;18.42;;
16634;SDS011;8431;52.458;9.998;2023-12-14T07:26:49;19.88;;;18.48;;
16634;SDS011;8431;52.458;9.998;2023-12-14T07:29:16;19.70;;;18.20;;
16634;SDS011;8431;52.458;9.998;2023-12-14T07:31:42;20.50;;;19.20;;
16634;SDS011;8431;52.458;9.998;2023-12-14T07:34:11;21.67;;;19.98;;
16634;SDS011;8431;52.458;9.998;2023-12-14T07:36:37;20.35;;;18.95;;
16634;SDS011;8431;52.458;9.998;2023-12-14T07:39:04;19.35;;;17.85;;
16634;SDS011;8431;52.458;9.998;2023-12-14T07:41:31;19.70;;;18.40;;
16634;SDS011;8431;52.458;9.998;2023-12-14T07:43:58;18.75;;;17.65;;
16634;SDS011;8431;52.458;9.998;2023-12-14T07:46:25;19.65;;;18.52;;
16634;SDS011;8431;52.458;9.998;2023-12-14T07:48:51;18.42;;;17.23;;
16634;SDS011;8431;52.458;9.998;2023-12-14T07:51:19;17.85;;;16.85;;
16634;SDS011;8431;52.458;9.998;2023-12-14T07:53:46;16.92;;;15.93;;
16634;SDS011;8431;52.458;9.998;2023-12-14T07:56:13;16.52;;;15.63;;
16634;SDS011;8431;52.458;9.998;2023-12-14T07:58:40;16.80;;;15.80;;
16634;SDS011;8431;52.458;9.998;2023-12-14T08:01:10;16.50;;;15.60;;
16634;SDS011;8431;52.458;9.998;2023-12-14T08:03:37;17.20;;;16.20;;
16634;SDS011;8431;52.458;9.998;2023-12-14T08:06:04;18.88;;;17.73;;
16634;SDS011;8431;52.458;9.998;2023-12-14T08:08:32;19.30;;;18.02;;
16634;SDS011;8431;52.458;9.998;2023-12-14T08:10:59;14.70;;;13.90;;
16634;SDS011;8431;52.458;9.998;2023-12-14T08:13:26;15.70;;;14.80;;
16634;SDS011;8431;52.458;9.998;2023-12-14T08:18:49;16.50;;;15.50;;
16634;SDS011;8431;52.458;9.998;2023-12-14T08:21:18;15.52;;;14.70;;
16634;SDS011;8431;52.458;9.998;2023-12-14T08:23:47;14.07;;;13.38;;
16634;SDS011;8431;52.458;9.998;2023-12-14T08:26:14;13.82;;;13.10;;
16634;SDS011;8431;52.458;9.998;2023-12-14T08:28:40;14.13;;;13.02;;
16634;SDS011;8431;52.458;9.998;2023-12-14T08:31:08;12.55;;;11.85;;
16634;SDS011;8431;52.458;9.998;2023-12-14T08:33:37;12.63;;;12.07;;
16634;SDS011;8431;52.458;9.998;2023-12-14T08:36:04;13.80;;;13.00;;
16634;SDS011;8431;52.458;9.998;2023-12-14T08:38:31;13.13;;;12.57;;
16634;SDS011;8431;52.458;9.998;2023-12-14T08:40:59;14.13;;;13.43;;
16634;SDS011;8431;52.458;9.998;2023-12-14T08:43:26;14.45;;;13.75;;
16634;SDS011;8431;52.458;9.998;2023-12-14T08:45:53;13.82;;;13.13;;
16634;SDS011;8431;52.458;9.998;2023-12-14T08:48:27;12.93;;;12.23;;
16634;SDS011;8431;52.458;9.998;2023-12-14T08:50:54;13.38;;;12.73;;
16634;SDS011;8431;52.458;9.998;2023-12-14T08:53:21;12.18;;;11.63;;
16634;SDS011;8431;52.458;9.998;2023-12-14T08:55:48;13.50;;;12.80;;
16634;SDS011;8431;52.458;9.998;2023-12-14T08:58:18;12.90;;;12.27;;
16634;SDS011;8431;52.458;9.998;2023-12-14T09:00:45;12.90;;;12.20;;
16634;SDS011;8431;52.458;9.998;2023-12-14T09:03:12;15.07;;;13.98;;
16634;SDS011;8431;52.458;9.998;2023-12-14T09:05:39;16.63;;;15.32;;
16634;SDS011;8431;52.458;9.998;2023-12-14T09:08:08;14.38;;;13.57;;
16634;SDS011;8431;52.458;9.998;2023-12-14T09:10:34;13.77;;;13.07;;
16634;SDS011;8431;52.458;9.998;2023-12-14T09:13:01;13.90;;;13.15;;
16634;SDS011;8431;52.458;9.998;2023-12-14T09:15:30;14.02;;;13.32;;
16634;SDS011;8431;52.458;9.998;2023-12-14T09:17:57;14.05;;;13.35;;
16634;SDS011;8431;52.458;9.998;2023-12-14T09:20:27;15.40;;;14.50;;
16634;SDS011;8431;52.458;9.998;2023-12-14T09:22:54;14.55;;;13.75;;
16634;SDS011;8431;52.458;9.998;2023-12-14T09:25:21;13.40;;;12.75;;
16634;SDS011;8431;52.458;9.998;2023-12-14T09:27:51;13.98;;;13.18;;
16634;SDS011;8431;52.458;9.998;2023-12-14T09:30:18;13.05;;;12.35;;
16634;SDS011;8431;52.458;9.998;2023-12-14T09:32:46;13.05;;;12.32;;
16634;SDS011;8431;52.458;9.998;2023-12-14T09:35:13;12.40;;;11.60;;
16634;SDS011;8431;52.458;9.998;2023-12-14T09:37:40;13.45;;;12.73;;
16634;SDS011;8431;52.458;9.998;2023-12-14T09:40:08;15.27;;;14.27;;
16634;SDS011;8431;52.458;9.998;2023-12-14T09:42:37;16.10;;;15.10;;
16634;SDS011;8431;52.458;9.998;2023-12-14T09:45:17;14.50;;;13.80;;
16634;SDS011;8431;52.458;9.998;2023-12-14T09:47:47;15.55;;;14.65;;
16634;SDS011;8431;52.458;9.998;2023-12-14T09:50:17;14.23;;;13.52;;
16634;SDS011;8431;52.458;9.998;2023-12-14T09:55:38;16.80;;;15.80;;
16634;SDS011;8431;52.458;9.998;2023-12-14T09:58:05;15.18;;;14.20;;
16634;SDS011;8431;52.458;9.998;2023-12-14T10:00:35;16.42;;;15.30;;
16634;SDS011;8431;52.458;9.998;2023-12-14T10:06:03;13.77;;;13.02;;
16634;SDS011;8431;52.458;9.998;2023-12-14T10:08:30;15.48;;;14.48;;
16634;SDS011;8431;52.458;9.998;2023-12-14T10:11:00;13.23;;;12.52;;
16634;SDS011;8431;52.458;9.998;2023-12-14T10:13:39;16.48;;;15.38;;
16634;SDS011;8431;52.458;9.998;2023-12-14T10:16:31;13.75;;;12.85;;
16634;SDS011;8431;52.458;9.998;2023-12-14T10:19:04;13.48;;;12.77;;
16634;SDS011;8431;52.458;9.998;2023-12-14T10:21:38;13.18;;;12.48;;
16634;SDS011;8431;52.458;9.998;2023-12-14T10:24:16;15.30;;;14.40;;
16634;SDS011;8431;52.458;9.998;2023-12-14T10:26:47;13.40;;;12.60;;
16634;SDS011;8431;52.458;9.998;2023-12-14T10:29:21;12.13;;;11.43;;
16634;SDS011;8431;52.458;9.998;2023-12-14T10:31:49;14.85;;;13.75;;
16634;SDS011;8431;52.458;9.998;2023-12-14T10:34:19;14.13;;;13.27;;
16634;SDS011;8431;52.458;9.998;2023-12-14T10:36:48;12.88;;;11.90;;
16634;SDS011;8431;52.458;9.998;2023-12-14T10:39:16;12.77;;;12.07;;
16634;SDS011;8431;52.458;9.998;2023-12-14T10:41:56;13.63;;;12.70;;
16634;SDS011;8431;52.458;9.998;2023-12-14T10:47:28;12.68;;;11.95;;
16634;SDS011;8431;52.458;9.998;2023-12-14T10:49:57;12.95;;;12.35;;
16634;SDS011;8431;52.458;9.998;2023-12-14T10:52:26;13.25;;;12.45;;
16634;SDS011;8431;52.458;9.998;2023-12-14T10:55:00;12.85;;;12.15;;
16634;SDS011;8431;52.458;9.998;2023-12-14T10:57:32;12.45;;;11.82;;
16634;SDS011;8431;52.458;9.998;2023-12-14T11:00:01;12.38;;;11.52;;
16634;SDS011;8431;52.458;9.998;2023-12-14T11:02:30;13.00;;;12.20;;
16634;SDS011;8431;52.458;9.998;2023-12-14T11:05:05;13.30;;;12.60;;
16634;SDS011;8431;52.458;9.998;2023-12-14T11:07:46;15.45;;;14.20;;
16634;SDS011;8431;52.458;9.998;2023-12-14T11:10:19;13.50;;;12.68;;
16634;SDS011;8431;52.458;9.998;2023-12-14T11:12:56;13.00;;;12.20;;
16634;SDS011;8431;52.458;9.998;2023-12-14T11:15:27;13.73;;;12.95;;
16634;SDS011;8431;52.458;9.998;2023-12-14T11:20:53;12.30;;;11.65;;
16634;SDS011;8431;52.458;9.998;2023-12-14T11:23:29;13.45;;;12.65;;
16634;SDS011;8431;52.458;9.998;2023-12-14T11:25:58;12.85;;;12.10;;
16634;SDS011;8431;52.458;9.998;2023-12-14T11:28:29;12.88;;;12.00;;
16634;SDS011;8431;52.458;9.998;2023-12-14T11:30:57;14.85;;;13.98;;
16634;SDS011;8431;52.458;9.998;2023-12-14T11:33:24;15.45;;;14.45;;
16634;SDS011;8431;52.458;9.998;2023-12-14T11:35:55;15.68;;;14.52;;
16634;SDS011;8431;52.458;9.998;2023-12-14T11:38:25;16.85;;;15.65;;
16634;SDS011;8431;52.458;9.998;2023-12-14T11:40:55;16.30;;;15.02;;
16634;SDS011;8431;52.458;9.998;2023-12-14T11:43:24;16.50;;;15.50;;
16634;SDS011;8431;52.458;9.998;2023-12-14T11:45:51;18.17;;;16.90;;
16634;SDS011;8431;52.458;9.998;2023-12-14T11:48:20;16.27;;;15.27;;
16634;SDS011;8431;52.458;9.998;2023-12-14T11:50:47;17.38;;;16.15;;
16634;SDS011;8431;52.458;9.998;2023-12-14T11:53:15;17.25;;;16.15;;
16634;SDS011;8431;52.458;9.998;2023-12-14T11:55:43;16.35;;;15.25;;
16634;SDS011;8431;52.458;9.998;2023-12-14T11:58:11;16.00;;;15.02;;
16634;SDS011;8431;52.458;9.998;2023-12-14T12:00:40;16.70;;;15.50;;
16634;SDS011;8431;52.458;9.998;2023-12-14T12:03:07;14.43;;;13.55;;
16634;SDS011;8431;52.458;9.998;2023-12-14T12:05:35;15.20;;;14.30;;
16634;SDS011;8431;52.458;9.998;2023-12-14T12:08:03;15.45;;;14.45;;
16634;SDS011;8431;52.458;9.998;2023-12-14T12:10:36;15.52;;;14.43;;
16634;SDS011;8431;52.458;9.998;2023-12-14T12:13:04;15.80;;;14.80;;
16634;SDS011;8431;52.458;9.998;2023-12-14T12:15:33;16.30;;;15.20;;
16634;SDS011;8431;52.458;9.998;2023-12-14T12:18:02;16.15;;;15.02;;
16634;SDS011;8431;52.458;9.998;2023-12-14T12:20:30;15.60;;;14.60;;
16634;SDS011;8431;52.458;9.998;2023-12-14T12:22:57;15.73;;;14.48;;
16634;SDS011;8431;52.458;9.998;2023-12-14T12:25:24;15.30;;;14.30;;
16634;SDS011;8431;52.458;9.998;2023-12-14T12:27:53;15.07;;;14.02;;
16634;SDS011;8431;52.458;9.998;2023-12-14T12:30:22;15.15;;;13.95;;
16634;SDS011;8431;52.458;9.998;2023-12-14T12:32:50;14.30;;;13.30;;
16634;SDS011;8431;52.458;9.998;2023-12-14T12:35:17;14.27;;;13.38;;
16634;SDS011;8431;52.458;9.998;2023-12-14T12:37:46;15.68;;;14.65;;
16634;SDS011;8431;52.458;9.998;2023-12-14T12:40:18;14.35;;;13.38;;
16634;SDS011;8431;52.458;9.998;2023-12-14T12:42:46;14.93;;;13.93;;
16634;SDS011;8431;52.458;9.998;2023-12-14T12:45:16;15.23;;;14.23;;
16634;SDS011;8431;52.458;9.998;2023-12-14T12:47:46;16.13;;;14.82;;
16634;SDS011;8431;52.458;9.998;2023-12-14T12:50:13;15.00;;;14.10;;
16634;SDS011;8431;52.458;9.998;2023-12-14T12:52:40;16.88;;;15.45;;
16634;SDS011;8431;52.458;9.998;2023-12-14T12:55:08;15.98;;;14.77;;
16634;SDS011;8431;52.458;9.998;2023-12-14T12:57:36;14.90;;;13.90;;
16634;SDS011;8431;52.458;9.998;2023-12-14T13:00:03;14.90;;;13.88;;
16634;SDS011;8431;52.458;9.998;2023-12-14T13:02:37;14.85;;;13.85;;
16634;SDS011;8431;52.458;9.998;2023-12-14T13:05:05;15.40;;;14.20;;
16634;SDS011;8431;52.458;9.998;2023-12-14T13:07:33;15.68;;;14.55;;
16634;SDS011;8431;52.458;9.998;2023-12-14T13:10:00;13.80;;;12.93;;
16634;SDS011;8431;52.458;9.998;2023-12-14T13:12:27;14.30;;;13.43;;
16634;SDS011;8431;52.458;9.998;2023-12-14T13:14:54;14.48;;;13.52;;
16634;SDS011;8431;52.458;9.998;2023-12-14T13:17:21;14.70;;;13.68;;
16634;SDS011;8431;52.458;9.998;2023-12-14T13:19:50;15.55;;;14.60;;
16634;SDS011;8431;52.458;9.998;2023-12-14T13:22:17;27.45;;;14.90;;
16634;SDS011;8431;52.458;9.998;2023-12-14T13:24:44;23.58;;;15.98;;
16634;SDS011;8431;52.458;9.998;2023-12-14T13:27:12;29.25;;;15.57;;
16634;SDS011;8431;52.458;9.998;2023-12-14T13:29:39;14.32;;;13.25;;
16634;SDS011;8431;52.458;9.998;2023-12-14T13:32:06;14.70;;;13.57;;
16634;SDS011;8431;52.458;9.998;2023-12-14T13:34:33;15.77;;;14.55;;
16634;SDS011;8431;52.458;9.998;2023-12-14T13:37:01;15.63;;;14.57;;
16634;SDS011;8431;52.458;9.998;2023-12-14T13:39:29;13.77;;;12.45;;
16634;SDS011;8431;52.458;9.998;2023-12-14T13:41:56;14.52;;;13.68;;
16634;SDS011;8431;52.458;9.998;2023-12-14T13:44:24;15.75;;;14.75;;
16634;SDS011;8431;52.458;9.998;2023-12-14T13:46:51;14.23;;;13.25;;
16634;SDS011;8431;52.458;9.998;2023-12-14T13:49:18;14.35;;;13.45;;
16634;SDS011;8431;52.458;9.998;2023-12-14T13:51:45;15.15;;;14.05;;
16634;SDS011;8431;52.458;9.998;2023-12-14T13:54:13;14.52;;;13.60;;
16634;SDS011;8431;52.458;9.998;2023-12-14T13:56:40;13.73;;;12.77;;
16634;SDS011;8431;52.458;9.998;2023-12-14T13:59:08;13.73;;;12.63;;
16634;SDS011;8431;52.458;9.998;2023-12-14T14:01:37;15.18;;;13.98;;
16634;SDS011;8431;52.458;9.998;2023-12-14T14:04:09;15.63;;;14.45;;
16634;SDS011;8431;52.458;9.998;2023-12-14T14:06:40;14.27;;;13.23;;
16634;SDS011;8431;52.458;9.998;2023-12-14T14:09:13;15.07;;;13.20;;
16634;SDS011;8431;52.458;9.998;2023-12-14T14:11:44;15.10;;;13.85;;
16634;SDS011;8431;52.458;9.998;2023-12-14T14:14:18;12.50;;;11.60;;
16634;SDS011;8431;52.458;9.998;2023-12-14T14:16:45;13.82;;;12.73;;
16634;SDS011;8431;52.458;9.998;2023-12-14T14:19:12;12.98;;;11.88;;
16634;SDS011;8431;52.458;9.998;2023-12-14T14:21:38;13.23;;;12.30;;
16634;SDS011;8431;52.458;9.998;2023-12-14T14:24:05;14.60;;;13.45;;
16634;SDS011;8431;52.458;9.998;2023-12-14T14:26:34;13.05;;;12.23;;
16634;SDS011;8431;52.458;9.998;2023-12-14T14:29:01;13.50;;;12.23;;
16634;SDS011;8431;52.458;9.998;2023-12-14T14:31:29;14.10;;;12.93;;
16634;SDS011;8431;52.458;9.998;2023-12-14T14:34:00;11.73;;;10.82;;
16634;SDS011;8431;52.458;9.998;2023-12-14T14:36:28;11.82;;;10.88;;
16634;SDS011;8431;52.458;9.998;2023-12-14T14:38:55;13.32;;;12.43;;
16634;SDS011;8431;52.458;9.998;2023-12-14T14:41:24;13.43;;;12.43;;
16634;SDS011;8431;52.458;9.998;2023-12-14T14:43:53;13.48;;;12.40;;
16634;SDS011;8431;52.458;9.998;2023-12-14T14:46:20;12.88;;;11.98;;
16634;SDS011;8431;52.458;9.998;2023-12-14T14:48:49;12.63;;;11.75;;
16634;SDS011;8431;52.458;9.998;2023-12-14T14:51:16;13.48;;;12.57;;
16634;SDS011;8431;52.458;9.998;2023-12-14T14:53:43;13.35;;;12.55;;
16634;SDS011;8431;52.458;9.998;2023-12-14T14:56:12;14.10;;;13.05;;